Time;durP1;ratioP1;P1;durP2;ratioP2;P2;SDS_P1;SDS_P2;PMS_P1;PMS_P2;Temp;Humidity;BMP_temperature;BMP_pressure;BME280_temperature;BME280_humidity;BME280_pressure;Samples;Min_cycle;Max_cycle;Signal;HPM_P1;HPM_P2
2021/09/21 00:02:11;;;;;;;2.47;2.00;;;12.00;95.50;;;;;;5111876;28;20023;-36
2021/09/21 00:04:37;;;;;;;4.35;2.80;;;12.00;95.50;;;;;;5110756;28;20494;-37
2021/09/21 00:07:02;;;;;;;3.53;2.35;;;11.90;95.50;;;;;;5111189;28;20114;-38
2021/09/21 00:09:28;;;;;;;3.22;2.92;;;11.90;95.60;;;;;;5110779;28;20039;-39
2021/09/21 00:11:53;;;;;;;4.55;3.35;;;11.90;95.60;;;;;;5108916;28;20015;-36
2021/09/21 00:14:20;;;;;;;3.53;3.20;;;11.90;95.70;;;;;;5111444;28;20027;-38
2021/09/21 00:16:46;;;;;;;5.22;3.70;;;11.80;95.80;;;;;;5109764;28;20440;-40
2021/09/21 00:19:11;;;;;;;6.20;3.95;;;11.80;96.00;;;;;;5111662;28;20102;-36
2021/09/21 00:21:37;;;;;;;5.32;3.92;;;11.70;96.10;;;;;;5112186;28;20402;-36
2021/09/21 00:24:03;;;;;;;5.65;3.58;;;11.70;96.30;;;;;;5110190;28;20124;-35
2021/09/21 00:26:28;;;;;;;4.60;4.07;;;11.60;96.50;;;;;;5111796;28;20019;-37
2021/09/21 00:28:57;;;;;;;6.80;4.20;;;11.60;96.70;;;;;;5111812;28;20027;-34
2021/09/21 00:31:22;;;;;;;7.20;4.40;;;11.50;96.70;;;;;;5111479;28;20018;-38
2021/09/21 00:34:08;;;;;;;4.97;4.07;;;11.50;97.10;;;;;;5111633;28;20004;-38
2021/09/21 00:36:38;;;;;;;4.72;3.40;;;11.50;97.10;;;;;;5111902;28;20023;-39
2021/09/21 00:39:06;;;;;;;7.05;3.92;;;11.50;96.90;;;;;;5109781;28;20229;-37
2021/09/21 00:41:35;;;;;;;4.30;3.47;;;11.50;96.90;;;;;;5110341;28;20016;-36
2021/09/21 00:44:01;;;;;;;4.22;3.13;;;11.50;96.80;;;;;;5110916;28;20543;-37
2021/09/21 00:46:26;;;;;;;4.40;3.80;;;11.50;96.80;;;;;;5110289;28;20094;-36
2021/09/21 00:49:01;;;;;;;4.40;3.65;;;11.50;96.90;;;;;;5110030;28;20427;-36
2021/09/21 00:51:27;;;;;;;3.85;3.40;;;11.50;96.80;;;;;;5110797;28;20077;-35
2021/09/21 00:53:55;;;;;;;5.47;3.83;;;11.50;96.80;;;;;;5110444;28;20027;-43
2021/09/21 00:56:21;;;;;;;5.15;3.70;;;11.40;96.80;;;;;;5110828;28;20081;-38
2021/09/21 00:58:47;;;;;;;4.40;3.40;;;11.40;96.80;;;;;;5109478;28;20020;-38
2021/09/21 01:01:12;;;;;;;4.10;3.70;;;11.30;96.80;;;;;;5110076;28;20027;-36
2021/09/21 01:03:38;;;;;;;4.18;3.70;;;11.30;96.90;;;;;;5108970;28;20111;-40
2021/09/21 01:06:04;;;;;;;4.38;3.92;;;11.20;97.00;;;;;;5109714;28;20314;-36
2021/09/21 01:08:30;;;;;;;4.85;3.67;;;11.10;97.10;;;;;;5108206;28;20016;-39
2021/09/21 01:10:58;;;;;;;4.38;3.95;;;11.10;97.20;;;;;;5110539;28;20031;-36
2021/09/21 01:13:24;;;;;;;6.10;4.00;;;11.00;97.30;;;;;;5109874;28;20022;-39
2021/09/21 01:15:56;;;;;;;4.85;4.07;;;11.00;97.40;;;;;;5110558;28;20427;-35
2021/09/21 01:18:27;;;;;;;4.50;4.10;;;11.00;97.50;;;;;;5108713;28;20020;-37
2021/09/21 01:21:07;;;;;;;4.45;4.00;;;10.90;97.50;;;;;;5110743;28;20028;-37
2021/09/21 01:23:47;;;;;;;4.53;3.72;;;10.90;97.60;;;;;;5109453;28;20403;-34
2021/09/21 01:26:13;;;;;;;5.50;3.75;;;10.90;97.60;;;;;;5109646;28;20032;-34
2021/09/21 01:28:39;;;;;;;4.35;3.70;;;10.90;97.70;;;;;;5109958;28;20027;-37
2021/09/21 01:31:04;;;;;;;5.00;4.28;;;10.90;97.70;;;;;;5110403;28;20023;-35
2021/09/21 01:33:30;;;;;;;5.10;4.28;;;10.90;97.80;;;;;;5108743;28;20375;-35
2021/09/21 01:35:55;;;;;;;7.60;4.03;;;10.90;98.00;;;;;;5110228;28;20023;-38
2021/09/21 01:38:21;;;;;;;4.25;3.78;;;10.90;98.00;;;;;;5109524;28;20023;-39
2021/09/21 01:40:49;;;;;;;4.65;3.83;;;10.90;98.00;;;;;;5109992;28;20027;-38
2021/09/21 01:43:15;;;;;;;4.88;4.03;;;11.00;98.00;;;;;;5109366;28;20165;-38
2021/09/21 01:45:43;;;;;;;5.30;3.80;;;11.00;98.00;;;;;;5110123;28;20051;-38
2021/09/21 01:48:09;;;;;;;3.97;3.47;;;11.00;98.00;;;;;;5108690;28;20032;-38
2021/09/21 01:50:42;;;;;;;4.05;3.58;;;11.00;98.00;;;;;;5109389;28;20091;-37
2021/09/21 01:53:25;;;;;;;3.90;3.47;;;11.10;98.00;;;;;;5110486;28;20107;-37
2021/09/21 01:58:47;;;;;;;4.50;3.40;;;11.00;98.10;;;;;;5109882;28;19910;-36
2021/09/21 02:01:15;;;;;;;4.95;3.22;;;11.00;98.10;;;;;;5109901;28;20016;-38
2021/09/21 02:03:41;;;;;;;4.72;3.30;;;10.90;98.30;;;;;;5109015;28;20032;-36
2021/09/21 02:06:07;;;;;;;3.97;3.47;;;10.90;98.40;;;;;;5108842;28;20022;-37
2021/09/21 02:08:32;;;;;;;7.47;3.70;;;10.80;98.50;;;;;;5108117;28;20095;-40
2021/09/21 02:11:02;;;;;;;4.93;3.70;;;10.80;98.60;;;;;;5108117;28;20592;-36
2021/09/21 02:13:28;;;;;;;6.03;3.47;;;10.80;98.70;;;;;;5108079;28;20008;-36
2021/09/21 02:15:53;;;;;;;4.65;3.40;;;10.80;98.80;;;;;;5108944;28;20063;-39
2021/09/21 02:18:22;;;;;;;4.22;3.35;;;10.80;98.90;;;;;;5108372;28;20122;-36
2021/09/21 02:20:47;;;;;;;3.90;3.22;;;10.80;98.90;;;;;;5109606;28;20015;-38
2021/09/21 02:23:13;;;;;;;4.70;3.30;;;10.80;98.90;;;;;;5109303;28;20038;-40
2021/09/21 02:25:40;;;;;;;4.78;3.53;;;10.80;99.00;;;;;;5109957;28;20046;-38
2021/09/21 02:28:05;;;;;;;3.17;2.88;;;10.80;99.00;;;;;;5108795;28;20019;-39
2021/09/21 02:30:31;;;;;;;5.40;3.30;;;10.80;99.10;;;;;;5107510;28;20027;-37
2021/09/21 02:32:56;;;;;;;5.10;3.33;;;10.90;99.00;;;;;;5109819;28;20043;-37
2021/09/21 02:35:31;;;;;;;3.20;2.78;;;10.90;99.00;;;;;;5109144;28;20194;-39
2021/09/21 02:38:09;;;;;;;3.55;3.25;;;10.90;99.00;;;;;;5090574;28;20024;-38
2021/09/21 02:40:34;;;;;;;3.55;3.10;;;10.90;99.00;;;;;;5113187;28;20459;-38
2021/09/21 02:43:00;;;;;;;3.92;3.28;;;10.90;99.00;;;;;;5113052;28;20019;-39
2021/09/21 02:45:26;;;;;;;4.13;3.30;;;10.80;99.00;;;;;;5112248;28;20478;-36
2021/09/21 02:47:51;;;;;;;4.20;3.50;;;10.90;99.10;;;;;;5112617;28;20032;-40
2021/09/21 02:50:17;;;;;;;4.78;3.33;;;10.80;99.10;;;;;;5113340;28;20024;-40
2021/09/21 02:52:43;;;;;;;4.43;3.33;;;10.90;99.10;;;;;;5112585;28;20670;-39
2021/09/21 02:55:08;;;;;;;4.72;3.40;;;10.90;99.40;;;;;;5113097;28;20088;-38
2021/09/21 02:57:36;;;;;;;3.88;3.15;;;10.90;99.10;;;;;;5112638;28;20027;-40
2021/09/21 03:00:06;;;;;;;3.63;3.17;;;10.80;99.20;;;;;;5112833;28;20431;-37
2021/09/21 03:02:38;;;;;;;5.63;3.25;;;10.80;99.30;;;;;;5112666;28;20478;-39
2021/09/21 03:05:08;;;;;;;4.93;3.50;;;10.80;99.40;;;;;;5072800;28;20104;-36
2021/09/21 03:18:02;;;;;;;4.50;3.85;;;10.60;99.80;;;;;;5110795;28;20390;-39
2021/09/21 03:20:28;;;;;;;4.97;3.75;;;10.50;99.80;;;;;;5110470;28;20111;-38
2021/09/21 03:22:54;;;;;;;4.40;3.95;;;10.50;99.90;;;;;;5111300;28;20012;-37
2021/09/21 03:25:20;;;;;;;6.57;3.97;;;10.50;99.90;;;;;;5111643;28;20357;-37
2021/09/21 03:27:45;;;;;;;5.20;4.30;;;10.40;99.90;;;;;;5111335;28;20027;-37
2021/09/21 03:30:12;;;;;;;5.57;4.40;;;10.40;99.90;;;;;;5111182;28;20044;-37
2021/09/21 03:32:41;;;;;;;6.47;4.53;;;10.40;99.90;;;;;;5111923;28;20026;-38
2021/09/21 03:35:09;;;;;;;5.90;4.47;;;10.40;99.90;;;;;;5111955;28;20020;-37
2021/09/21 03:37:36;;;;;;;7.75;4.70;;;10.40;99.90;;;;;;5111762;28;20528;-39
2021/09/21 03:40:02;;;;;;;4.70;4.05;;;10.40;99.90;;;;;;5112595;28;20015;-35
2021/09/21 03:42:28;;;;;;;6.03;4.53;;;10.30;99.90;;;;;;5110687;28;20076;-36
2021/09/21 03:44:53;;;;;;;5.25;4.65;;;10.20;99.90;;;;;;5111810;28;20319;-35
2021/09/21 03:47:22;;;;;;;6.97;4.97;;;10.20;99.90;;;;;;5111845;28;20106;-36
2021/09/21 03:49:47;;;;;;;7.55;5.28;;;10.20;99.90;;;;;;5110597;28;20055;-36
2021/09/21 03:52:19;;;;;;;6.38;4.80;;;10.10;99.90;;;;;;5112373;28;20603;-37
2021/09/21 03:54:57;;;;;;;6.22;5.15;;;10.10;99.90;;;;;;5111892;28;20023;-35
2021/09/21 03:57:34;;;;;;;5.97;4.20;;;10.10;99.90;;;;;;5110735;28;20030;-36
2021/09/21 04:00:00;;;;;;;6.05;5.03;;;10.20;99.90;;;;;;5109477;28;20023;-38
2021/09/21 04:02:28;;;;;;;5.97;4.53;;;10.20;99.90;;;;;;5111243;28;20375;-39
2021/09/21 04:04:57;;;;;;;9.52;5.88;;;10.20;99.90;;;;;;5112048;28;20542;-36
2021/09/21 04:07:25;;;;;;;6.13;5.10;;;10.10;99.90;;;;;;5111485;28;20030;-36
2021/09/21 04:09:51;;;;;;;7.32;5.20;;;10.10;99.90;;;;;;5110732;28;20075;-33
2021/09/21 04:12:16;;;;;;;6.50;5.25;;;10.10;99.90;;;;;;5111859;28;20104;-33
2021/09/21 04:14:42;;;;;;;7.65;5.30;;;10.00;99.90;;;;;;5111229;28;20019;-36
2021/09/21 04:17:08;;;;;;;6.28;5.10;;;10.10;99.90;;;;;;5110952;28;20493;-38
2021/09/21 04:19:33;;;;;;;6.18;5.00;;;10.10;99.90;;;;;;5111192;28;20998;-37
2021/09/21 04:21:59;;;;;;;6.05;5.20;;;10.10;99.90;;;;;;5110869;28;20114;-38
2021/09/21 04:24:24;;;;;;;6.28;5.20;;;10.10;99.90;;;;;;5109006;28;20024;-38
2021/09/21 04:26:50;;;;;;;7.47;5.32;;;10.10;99.90;;;;;;5109829;28;20031;-35
2021/09/21 04:29:15;;;;;;;6.30;5.10;;;10.10;99.90;;;;;;5110069;28;20034;-38
2021/09/21 04:31:43;;;;;;;6.53;5.05;;;10.20;99.90;;;;;;5108775;28;20016;-38
2021/09/21 04:34:15;;;;;;;7.00;5.50;;;10.20;99.90;;;;;;5110014;28;20078;-38
2021/09/21 04:36:43;;;;;;;5.83;5.10;;;10.20;99.90;;;;;;5110033;28;20459;-34
2021/09/21 04:39:09;;;;;;;6.18;5.20;;;10.20;99.90;;;;;;5110794;28;20253;-38
2021/09/21 04:41:35;;;;;;;6.38;4.97;;;10.30;99.90;;;;;;5110434;28;20485;-35
2021/09/21 04:44:03;;;;;;;5.80;4.57;;;10.40;99.90;;;;;;5110861;28;20026;-38
2021/09/21 04:46:29;;;;;;;5.82;4.78;;;10.40;99.90;;;;;;5108231;28;20023;-39
2021/09/21 04:48:54;;;;;;;6.75;5.22;;;10.50;99.90;;;;;;5109740;28;20046;-36
2021/09/21 04:51:20;;;;;;;7.60;4.85;;;10.50;99.90;;;;;;5109064;28;20020;-36
2021/09/21 04:53:45;;;;;;;6.78;5.40;;;10.50;99.90;;;;;;5110778;28;20403;-37
2021/09/21 04:56:13;;;;;;;6.88;5.80;;;10.60;99.90;;;;;;5110310;28;20032;-37
2021/09/21 04:58:39;;;;;;;6.47;5.30;;;10.60;99.90;;;;;;5109709;28;20110;-37
2021/09/21 05:01:07;;;;;;;6.90;5.50;;;10.70;99.90;;;;;;5110817;28;20102;-34
2021/09/21 05:03:33;;;;;;;6.30;5.00;;;10.70;99.90;;;;;;5110676;28;20019;-38
2021/09/21 05:05:58;;;;;;;5.38;4.60;;;10.80;99.90;;;;;;5110328;28;20052;-37
2021/09/21 05:08:23;;;;;;;7.32;4.70;;;10.80;99.90;;;;;;5110095;28;20111;-36
2021/09/21 05:10:49;;;;;;;8.13;5.55;;;10.80;99.90;;;;;;5110655;28;20027;-34
2021/09/21 05:13:15;;;;;;;6.47;5.28;;;10.90;99.90;;;;;;5109256;28;20476;-37
2021/09/21 05:15:40;;;;;;;5.78;4.70;;;10.90;99.90;;;;;;5110920;28;20051;-36
2021/09/21 05:18:06;;;;;;;6.43;4.82;;;10.90;99.90;;;;;;5110535;28;20164;-38
2021/09/21 05:20:31;;;;;;;5.68;5.03;;;10.90;99.90;;;;;;5083141;28;20036;-37
2021/09/21 05:22:59;;;;;;;6.47;5.00;;;11.00;99.90;;;;;;5107335;28;20435;-37
2021/09/21 05:25:35;;;;;;;7.85;4.90;;;11.00;99.90;;;;;;5088822;28;20019;-39
2021/09/21 05:28:01;;;;;;;7.32;4.88;;;11.00;99.90;;;;;;5106025;28;20019;-37
2021/09/21 05:30:29;;;;;;;8.25;4.95;;;11.10;99.90;;;;;;5107732;28;20502;-33
2021/09/21 05:32:58;;;;;;;6.25;4.85;;;11.10;99.90;;;;;;5107642;28;20020;-36
2021/09/21 05:35:24;;;;;;;6.03;4.97;;;11.10;99.90;;;;;;5107314;28;20019;-38
2021/09/21 05:37:50;;;;;;;6.28;4.55;;;11.20;99.90;;;;;;5108319;28;20064;-40
2021/09/21 05:40:16;;;;;;;7.03;4.85;;;11.20;99.90;;;;;;5108284;28;20564;-38
2021/09/21 05:42:43;;;;;;;6.07;4.75;;;11.20;99.90;;;;;;5108040;28;20012;-34
2021/09/21 05:45:14;;;;;;;6.00;4.50;;;11.30;99.90;;;;;;5107840;28;20411;-40
2021/09/21 05:47:43;;;;;;;5.95;4.72;;;11.30;99.90;;;;;;5108242;28;20051;-36
2021/09/21 05:50:11;;;;;;;6.40;5.00;;;11.40;99.90;;;;;;5108116;28;20497;-38
2021/09/21 05:52:40;;;;;;;6.82;4.70;;;11.40;99.90;;;;;;5107787;28;20463;-40
2021/09/21 05:55:06;;;;;;;5.95;4.70;;;11.40;99.90;;;;;;5102204;28;20024;-37
2021/09/21 05:57:32;;;;;;;6.60;5.00;;;11.40;99.90;;;;;;5108651;28;20047;-37
2021/09/21 06:00:18;;;;;;;9.13;5.25;;;11.50;99.90;;;;;;5109411;28;20470;-38
2021/09/21 06:02:43;;;;;;;6.25;5.05;;;11.50;99.90;;;;;;5107727;28;20433;-38
2021/09/21 06:05:09;;;;;;;7.05;5.13;;;11.60;99.90;;;;;;5109395;28;20590;-37
2021/09/21 06:07:35;;;;;;;6.20;4.82;;;11.60;99.90;;;;;;5108622;28;20399;-38
2021/09/21 06:10:00;;;;;;;6.88;5.05;;;11.60;99.90;;;;;;5107772;28;20360;-39
2021/09/21 06:12:27;;;;;;;5.25;4.75;;;11.60;99.90;;;;;;5093575;28;20053;-37
2021/09/21 06:14:53;;;;;;;5.93;4.80;;;11.60;99.90;;;;;;5104777;28;20034;-39
2021/09/21 06:17:18;;;;;;;5.53;4.65;;;11.60;99.90;;;;;;5113009;28;20425;-39
2021/09/21 06:19:44;;;;;;;5.90;4.88;;;11.70;99.90;;;;;;5113758;28;20058;-36
2021/09/21 06:22:09;;;;;;;6.50;5.45;;;11.70;99.90;;;;;;5113443;28;20024;-38
2021/09/21 06:24:35;;;;;;;6.35;4.97;;;11.80;99.90;;;;;;5112968;28;20040;-37
2021/09/21 06:27:03;;;;;;;6.88;4.32;;;11.80;99.90;;;;;;5114494;28;20028;-33
2021/09/21 06:29:29;;;;;;;5.60;4.53;;;11.90;99.90;;;;;;5111991;28;20131;-39
2021/09/21 06:31:54;;;;;;;7.38;5.00;;;11.90;99.90;;;;;;5113998;28;20106;-34
2021/09/21 06:34:24;;;;;;;5.90;4.75;;;11.90;99.90;;;;;;5112619;28;20101;-38
2021/09/21 06:36:53;;;;;;;6.20;5.10;;;12.00;99.90;;;;;;5113190;28;20039;-37
2021/09/21 06:39:19;;;;;;;6.28;4.60;;;12.00;99.90;;;;;;5112661;28;20051;-35
2021/09/21 06:41:47;;;;;;;5.78;4.75;;;12.10;99.90;;;;;;5112886;28;20032;-38
2021/09/21 06:44:13;;;;;;;6.88;4.75;;;12.20;99.90;;;;;;5111883;28;20018;-38
2021/09/21 06:46:38;;;;;;;5.07;4.25;;;12.20;99.90;;;;;;5111845;28;20437;-35
2021/09/21 06:49:04;;;;;;;6.07;4.72;;;12.30;99.90;;;;;;5111616;28;20429;-39
2021/09/21 06:51:31;;;;;;;7.25;4.70;;;12.30;99.90;;;;;;5112356;28;20487;-35
2021/09/21 06:53:57;;;;;;;6.30;4.80;;;12.40;99.90;;;;;;5113311;28;20043;-39
2021/09/21 06:56:27;;;;;;;5.55;4.65;;;12.40;99.90;;;;;;5111943;28;20097;-39
2021/09/21 06:58:53;;;;;;;6.85;4.90;;;12.50;99.90;;;;;;5112264;28;20109;-37
2021/09/21 07:01:18;;;;;;;5.95;4.47;;;12.50;99.90;;;;;;5112030;28;20024;-38
2021/09/21 07:03:44;;;;;;;5.40;4.40;;;12.60;99.90;;;;;;5111671;28;20030;-38
2021/09/21 07:06:19;;;;;;;5.38;4.05;;;12.60;99.90;;;;;;5111166;28;20020;-38
2021/09/21 07:08:44;;;;;;;4.93;4.40;;;12.60;99.90;;;;;;5113509;28;20420;-38
2021/09/21 07:11:10;;;;;;;8.57;4.28;;;12.70;99.90;;;;;;5112860;28;20057;-40
2021/09/21 07:13:35;;;;;;;6.68;4.43;;;12.70;99.90;;;;;;5111671;28;20489;-40
2021/09/21 07:16:01;;;;;;;6.25;5.03;;;12.70;99.90;;;;;;5112852;28;20055;-39
2021/09/21 07:18:27;;;;;;;5.80;4.72;;;12.80;99.90;;;;;;5112137;28;20031;-39
2021/09/21 07:20:52;;;;;;;6.55;4.80;;;12.80;99.90;;;;;;5112672;28;20483;-36
2021/09/21 07:23:18;;;;;;;6.53;4.75;;;12.90;99.90;;;;;;5100744;28;20085;-39
2021/09/21 07:25:43;;;;;;;6.97;4.90;;;13.00;99.90;;;;;;5094734;28;20027;-35
2021/09/21 07:28:09;;;;;;;6.10;4.55;;;13.10;99.90;;;;;;5113243;28;20524;-39
2021/09/21 07:30:35;;;;;;;6.97;4.80;;;13.10;99.90;;;;;;5111966;28;20475;-38
2021/09/21 07:33:01;;;;;;;5.47;4.28;;;13.20;99.90;;;;;;5093719;28;20052;-33
2021/09/21 07:35:26;;;;;;;4.57;3.88;;;13.20;99.90;;;;;;5081563;28;20486;-38
2021/09/21 07:37:52;;;;;;;6.63;3.72;;;13.20;99.90;;;;;;5112905;28;20015;-35
2021/09/21 07:40:19;;;;;;;4.88;3.92;;;13.10;99.90;;;;;;5111793;28;20478;-39
2021/09/21 07:42:46;;;;;;;6.72;4.07;;;13.10;99.90;;;;;;5100531;28;20063;-39
2021/09/21 07:45:15;;;;;;;5.03;4.30;;;13.10;99.90;;;;;;5083594;28;20408;-38
2021/09/21 07:47:44;;;;;;;5.75;4.30;;;13.10;99.90;;;;;;5100188;28;20107;-39
2021/09/21 07:50:19;;;;;;;4.80;4.30;;;13.10;99.90;;;;;;5086830;28;20028;-39
2021/09/21 07:52:45;;;;;;;6.20;4.25;;;13.00;99.90;;;;;;5098454;28;20489;-37
2021/09/21 07:55:11;;;;;;;5.50;4.25;;;13.10;99.90;;;;;;5096366;28;20032;-37
2021/09/21 07:57:40;;;;;;;6.07;4.30;;;13.10;99.90;;;;;;5104049;28;20108;-38
2021/09/21 08:00:08;;;;;;;5.15;4.10;;;13.10;99.90;;;;;;5083958;28;20498;-36
2021/09/21 08:02:33;;;;;;;6.38;4.80;;;13.20;99.90;;;;;;5089560;28;20012;-39
2021/09/21 08:04:59;;;;;;;4.82;3.67;;;13.30;99.90;;;;;;5111465;28;20044;-36
2021/09/21 08:07:28;;;;;;;4.85;4.30;;;13.40;99.90;;;;;;5111430;28;20080;-36
2021/09/21 08:09:55;;;;;;;6.30;4.05;;;13.50;99.90;;;;;;5109368;28;20035;-39
2021/09/21 08:12:20;;;;;;;4.72;3.88;;;13.50;99.90;;;;;;5111219;28;20016;-37
2021/09/21 08:14:49;;;;;;;4.95;4.03;;;13.60;99.90;;;;;;5111525;28;20028;-40
2021/09/21 08:17:15;;;;;;;5.00;3.97;;;13.70;99.90;;;;;;5111046;28;20032;-36
2021/09/21 08:19:41;;;;;;;4.85;3.50;;;13.80;99.90;;;;;;5111746;28;20035;-40
2021/09/21 08:22:07;;;;;;;5.22;4.10;;;13.90;99.90;;;;;;5110621;28;20015;-40
2021/09/21 08:25:00;;;;;;;5.63;3.85;;;13.90;99.90;;;;;;5111007;28;20045;-34
2021/09/21 08:27:26;;;;;;;4.93;3.88;;;14.10;99.90;;;;;;5092835;28;20047;-35
2021/09/21 08:29:52;;;;;;;4.55;3.78;;;14.30;99.90;;;;;;5111002;28;20043;-36
2021/09/21 08:32:18;;;;;;;4.72;4.18;;;14.40;99.90;;;;;;5111113;28;20371;-40
2021/09/21 08:34:43;;;;;;;4.25;3.67;;;14.50;99.90;;;;;;5111703;28;20051;-42
2021/09/21 08:37:09;;;;;;;4.18;3.40;;;14.60;99.90;;;;;;5110473;28;20047;-40
2021/09/21 08:39:34;;;;;;;3.97;3.28;;;14.70;99.90;;;;;;5104827;28;20098;-39
2021/09/21 08:42:00;;;;;;;5.97;3.85;;;14.80;99.90;;;;;;5091172;28;20024;-40
2021/09/21 08:44:26;;;;;;;6.53;4.05;;;14.90;99.90;;;;;;5110382;28;20465;-41
2021/09/21 08:46:52;;;;;;;4.50;3.63;;;14.90;99.80;;;;;;5111282;28;20482;-42
2021/09/21 08:49:19;;;;;;;4.22;3.35;;;14.90;99.70;;;;;;5110124;28;20379;-41
2021/09/21 08:51:45;;;;;;;6.40;3.45;;;15.00;99.70;;;;;;5110979;28;20034;-38
2021/09/21 08:54:11;;;;;;;3.50;2.97;;;15.10;99.40;;;;;;5110540;28;20043;-36
2021/09/21 08:56:36;;;;;;;4.22;3.25;;;15.20;99.30;;;;;;5109625;28;20153;-42
2021/09/21 08:59:04;;;;;;;4.05;2.88;;;15.30;99.10;;;;;;5109585;28;20028;-41
2021/09/21 09:01:45;;;;;;;3.28;2.70;;;15.40;99.10;;;;;;5109055;28;20020;-39
2021/09/21 09:04:12;;;;;;;3.15;2.85;;;15.50;98.90;;;;;;5103819;28;20022;-38
2021/09/21 09:06:49;;;;;;;5.75;3.30;;;15.60;98.80;;;;;;5108665;28;20102;-39
2021/09/21 09:09:22;;;;;;;3.70;2.70;;;15.60;98.60;;;;;;5108852;28;20080;-37
2021/09/21 09:11:56;;;;;;;3.45;2.38;;;15.70;98.50;;;;;;5110318;28;20016;-42
2021/09/21 09:14:33;;;;;;;2.80;2.42;;;15.80;98.20;;;;;;5110038;28;20015;-37
2021/09/21 09:17:02;;;;;;;3.17;2.47;;;15.80;98.10;;;;;;5110619;28;20415;-38
2021/09/21 09:19:42;;;;;;;3.58;2.50;;;15.80;98.00;;;;;;5108712;28;20050;-38
2021/09/21 09:22:16;;;;;;;4.15;2.30;;;15.80;97.90;;;;;;5110725;28;20024;-35
2021/09/21 09:24:49;;;;;;;2.70;1.90;;;15.80;97.50;;;;;;5109883;28;20023;-39
2021/09/21 09:27:16;;;;;;;2.08;1.88;;;15.80;97.50;;;;;;5109859;28;20024;-37
2021/09/21 09:29:56;;;;;;;3.63;2.40;;;15.90;97.20;;;;;;5110085;28;20065;-39
2021/09/21 09:32:22;;;;;;;2.70;2.47;;;15.90;96.80;;;;;;5082423;28;20020;-36
2021/09/21 09:34:48;;;;;;;3.08;2.20;;;15.90;96.70;;;;;;5091105;28;20035;-40
2021/09/21 09:37:18;;;;;;;4.00;2.65;;;16.00;96.70;;;;;;5081708;28;20401;-39
2021/09/21 09:39:45;;;;;;;2.78;2.15;;;16.10;96.70;;;;;;5088490;28;20471;-42
2021/09/21 09:42:13;;;;;;;3.15;2.40;;;16.10;96.40;;;;;;5085296;28;20020;-41
2021/09/21 09:44:40;;;;;;;2.50;2.20;;;16.10;96.20;;;;;;5094394;28;20049;-37
2021/09/21 09:47:07;;;;;;;3.97;2.10;;;16.20;96.20;;;;;;5109205;28;20571;-38
2021/09/21 09:49:45;;;;;;;2.33;2.13;;;16.20;96.00;;;;;;5109194;28;20103;-35
2021/09/21 09:52:10;;;;;;;3.13;2.00;;;16.30;95.90;;;;;;5110425;28;20020;-39
2021/09/21 09:54:39;;;;;;;2.10;1.80;;;16.30;95.80;;;;;;5104109;28;20032;-36
2021/09/21 09:57:06;;;;;;;2.00;1.80;;;16.30;95.50;;;;;;5103799;28;20024;-35
2021/09/21 09:59:32;;;;;;;2.38;1.90;;;16.40;95.30;;;;;;5082125;28;20024;-37
2021/09/21 10:01:59;;;;;;;1.98;1.80;;;16.40;95.10;;;;;;5094605;28;20027;-38
2021/09/21 10:04:25;;;;;;;2.40;2.20;;;16.40;94.80;;;;;;5109385;28;20047;-40
2021/09/21 10:06:51;;;;;;;2.05;1.85;;;16.50;94.60;;;;;;5109497;28;20042;-36
2021/09/21 10:09:18;;;;;;;3.15;1.77;;;16.50;93.80;;;;;;5108141;28;20459;-39
2021/09/21 10:11:46;;;;;;;2.22;1.58;;;16.60;94.10;;;;;;5108495;28;20463;-38
2021/09/21 10:14:12;;;;;;;3.22;1.73;;;16.60;93.70;;;;;;5103456;28;20035;-39
2021/09/21 10:17:07;;;;;;;1.92;1.77;;;16.60;93.70;;;;;;5100107;28;20104;-40
2021/09/21 10:19:35;;;;;;;2.33;1.67;;;16.60;93.30;;;;;;5087621;28;20387;-39
2021/09/21 10:22:01;;;;;;;3.60;1.60;;;16.60;92.80;;;;;;5108841;28;20034;-40
2021/09/21 10:24:39;;;;;;;1.50;1.40;;;16.60;92.30;;;;;;5108566;28;20055;-36
2021/09/21 10:27:19;;;;;;;1.80;1.35;;;16.60;92.40;;;;;;5108401;28;20024;-39
2021/09/21 10:29:44;;;;;;;2.20;2.00;;;16.70;92.30;;;;;;5107998;28;20101;-43
2021/09/21 10:32:12;;;;;;;1.33;1.23;;;16.70;91.60;;;;;;5109887;28;20467;-36
2021/09/21 10:34:43;;;;;;;2.10;1.90;;;16.70;91.60;;;;;;5109423;28;20490;-42
2021/09/21 10:37:09;;;;;;;2.22;1.83;;;16.70;91.70;;;;;;5109799;28;20054;-39
2021/09/21 10:39:38;;;;;;;3.33;2.15;;;16.70;91.20;;;;;;5108971;28;20036;-42
2021/09/21 10:42:09;;;;;;;3.30;2.47;;;16.80;91.00;;;;;;5109381;28;20463;-39
2021/09/21 10:44:48;;;;;;;2.42;2.22;;;16.80;91.00;;;;;;5108691;28;20479;-38
2021/09/21 10:47:22;;;;;;;2.65;2.35;;;16.80;90.90;;;;;;5109750;28;20073;-40
2021/09/21 10:49:47;;;;;;;2.22;1.98;;;16.80;91.10;;;;;;5109173;28;20027;-39
2021/09/21 10:52:16;;;;;;;3.58;2.30;;;16.80;91.10;;;;;;5109457;28;20470;-39
2021/09/21 10:54:52;;;;;;;2.85;2.08;;;16.90;91.10;;;;;;5109349;28;20031;-38
2021/09/21 10:57:44;;;;;;;2.55;1.90;;;16.90;91.10;;;;;;5108048;28;20023;-37
2021/09/21 11:00:09;;;;;;;2.40;2.10;;;17.00;91.10;;;;;;5113373;28;20030;-41
2021/09/21 11:02:41;;;;;;;2.95;2.10;;;17.00;90.80;;;;;;5112244;28;20023;-39
2021/09/21 11:05:16;;;;;;;1.95;1.83;;;17.00;90.50;;;;;;5112497;28;20055;-41
2021/09/21 11:07:49;;;;;;;2.65;2.00;;;17.10;90.70;;;;;;5112823;28;20024;-40
2021/09/21 11:10:17;;;;;;;1.60;1.50;;;17.10;90.70;;;;;;5112429;28;20070;-36
2021/09/21 11:12:50;;;;;;;3.90;2.28;;;17.20;90.50;;;;;;5112389;28;20392;-41
2021/09/21 11:15:18;;;;;;;2.83;2.40;;;17.30;89.90;;;;;;5111402;28;20038;-41
2021/09/21 11:17:43;;;;;;;1.80;1.70;;;17.30;89.70;;;;;;5111672;28;20395;-39
2021/09/21 11:20:10;;;;;;;3.15;2.42;;;17.40;89.10;;;;;;5112058;28;20486;-42
2021/09/21 11:22:37;;;;;;;2.45;2.20;;;17.40;87.10;;;;;;5110884;28;20366;-36
2021/09/21 11:25:09;;;;;;;2.85;1.90;;;17.40;87.90;;;;;;5111382;28;20047;-36
2021/09/21 11:27:36;;;;;;;1.67;1.58;;;17.50;87.80;;;;;;5111754;28;20027;-40
2021/09/21 11:30:14;;;;;;;1.60;1.50;;;17.50;88.50;;;;;;5110112;28;20092;-40
2021/09/21 11:32:41;;;;;;;2.25;2.03;;;17.50;88.30;;;;;;5111123;28;20016;-42
2021/09/21 11:35:17;;;;;;;3.35;2.10;;;17.60;88.60;;;;;;5111543;28;20019;-40
2021/09/21 11:37:46;;;;;;;2.35;2.15;;;17.60;88.40;;;;;;5112640;28;20031;-39
2021/09/21 11:40:23;;;;;;;2.20;1.92;;;17.70;87.80;;;;;;5111484;28;20085;-41
2021/09/21 11:42:49;;;;;;;3.38;2.13;;;17.80;87.30;;;;;;5112613;28;20036;-39
2021/09/21 11:45:15;;;;;;;2.55;1.85;;;17.80;87.80;;;;;;5111674;28;20496;-40
2021/09/21 11:47:49;;;;;;;3.17;2.28;;;17.90;87.90;;;;;;5111447;28;20399;-41
2021/09/21 11:50:30;;;;;;;2.13;1.90;;;18.00;86.90;;;;;;5111817;28;20065;-40
2021/09/21 11:52:58;;;;;;;2.42;1.83;;;18.10;87.60;;;;;;5070848;28;20368;-40
2021/09/21 11:55:31;;;;;;;2.33;2.00;;;18.20;86.60;;;;;;5104782;28;20344;-42
2021/09/21 11:57:57;;;;;;;3.00;2.55;;;18.30;85.80;;;;;;5071481;28;20031;-37
2021/09/21 12:00:58;;;;;;;2.22;2.03;;;18.30;85.20;;;;;;5106924;28;20071;-36
2021/09/21 12:03:25;;;;;;;3.95;2.10;;;18.40;85.50;;;;;;5008786;28;20030;-38
2021/09/21 12:05:52;;;;;;;2.78;2.20;;;18.50;85.70;;;;;;5093296;28;20042;-41
2021/09/21 12:08:38;;;;;;;2.10;1.67;;;18.60;86.10;;;;;;5110928;28;20483;-39
2021/09/21 12:11:08;;;;;;;2.60;2.40;;;18.70;85.50;;;;;;5110535;28;20035;-40
2021/09/21 12:13:34;;;;;;;3.83;2.85;;;18.80;85.60;;;;;;5111594;28;20045;-35
2021/09/21 12:16:06;;;;;;;3.60;2.42;;;18.90;85.10;;;;;;5110528;28;20055;-39
2021/09/21 12:18:33;;;;;;;3.38;2.97;;;19.00;85.40;;;;;;5111269;28;20062;-40
2021/09/21 12:21:06;;;;;;;3.03;2.63;;;19.00;84.50;;;;;;5111296;28;20077;-42
2021/09/21 12:23:34;;;;;;;3.40;2.40;;;19.10;84.50;;;;;;5110776;28;20106;-36
2021/09/21 12:26:01;;;;;;;3.20;2.60;;;19.10;84.90;;;;;;5110549;28;20066;-40
2021/09/21 12:28:30;;;;;;;3.08;2.67;;;19.20;84.50;;;;;;5109400;28;20020;-39
2021/09/21 12:30:57;;;;;;;2.88;2.40;;;19.30;84.00;;;;;;5109905;28;20044;-39
2021/09/21 12:33:23;;;;;;;5.28;2.72;;;19.40;83.80;;;;;;5109349;28;20024;-40
2021/09/21 12:35:51;;;;;;;3.58;2.67;;;19.40;83.20;;;;;;5109655;28;20095;-41
2021/09/21 12:38:19;;;;;;;2.42;2.03;;;19.50;83.50;;;;;;5110139;28;20055;-41
2021/09/21 12:40:57;;;;;;;3.15;1.70;;;19.50;83.70;;;;;;5109917;28;20023;-39
2021/09/21 12:43:27;;;;;;;2.85;2.40;;;19.50;83.70;;;;;;5109179;28;20471;-42
2021/09/21 12:45:56;;;;;;;2.83;1.92;;;19.60;83.60;;;;;;5111081;28;20583;-36
2021/09/21 12:48:27;;;;;;;3.15;2.00;;;19.60;83.70;;;;;;5111127;28;20092;-37
2021/09/21 12:50:56;;;;;;;4.40;2.33;;;19.60;82.80;;;;;;5110374;28;20031;-38
2021/09/21 12:53:22;;;;;;;2.13;1.77;;;19.50;81.90;;;;;;5110378;28;20030;-39
2021/09/21 12:56:07;;;;;;;3.38;2.15;;;19.40;81.70;;;;;;5111177;28;20027;-40
2021/09/21 12:58:36;;;;;;;3.30;2.33;;;19.40;81.90;;;;;;5110161;28;20035;-39
2021/09/21 13:01:09;;;;;;;2.78;2.08;;;19.40;80.80;;;;;;5110774;28;20016;-39
2021/09/21 13:03:36;;;;;;;2.80;1.90;;;19.30;80.80;;;;;;5110031;28;20016;-39
2021/09/21 13:06:06;;;;;;;2.67;2.10;;;19.30;81.10;;;;;;5110755;28;20039;-37
2021/09/21 13:08:32;;;;;;;2.03;1.83;;;19.30;81.30;;;;;;5103795;28;20022;-42